createdAt,value
2019-05-25T00:00:08.725Z,929.03
2019-05-25T00:02:38.472Z,922.83
2019-05-25T00:05:08.028Z,961.53
2019-05-25T00:07:37.063Z,917.33
2019-05-25T00:10:06.545Z,905.93
2019-05-25T00:12:35.591Z,905.80
2019-05-25T00:15:06.138Z,910.43
2019-05-25T00:17:35.176Z,920.00
2019-05-25T00:20:05.606Z,909.07
2019-05-25T00:22:34.629Z,928.23
2019-05-25T00:25:04.439Z,893.97
2019-05-25T00:27:33.576Z,881.13
2019-05-25T00:30:04.349Z,875.53
2019-05-25T00:32:34.048Z,856.17
2019-05-25T00:35:03.827Z,877.03
2019-05-25T00:37:34.344Z,875.97
2019-05-25T00:40:28.441Z,817.97
2019-05-25T00:42:57.501Z,832.93
2019-05-25T00:45:27.149Z,835.10
2019-05-25T00:54:30.896Z,832.83
2019-05-25T00:57:00.225Z,779.33
2019-05-25T00:59:29.795Z,805.43
2019-05-25T01:01:59.497Z,798.37
2019-05-25T01:04:28.531Z,810.03
2019-05-25T01:06:57.573Z,796.57
2019-05-25T01:09:27.363Z,850.67
2019-05-25T01:11:56.400Z,846.80
2019-05-25T01:14:25.426Z,839.67
2019-05-25T01:16:54.888Z,851.20
2019-05-25T01:19:24.603Z,842.90
2019-05-25T01:21:55.204Z,878.73
2019-05-25T01:24:24.323Z,862.70
2019-05-25T01:26:54.331Z,834.70
2019-05-25T01:29:24.078Z,829.20
2019-05-25T01:31:53.148Z,868.03
2019-05-25T01:34:22.671Z,892.60
2019-05-25T01:36:51.756Z,859.37
2019-05-25T01:39:20.772Z,837.70
2019-05-25T01:41:51.118Z,900.03
2019-05-25T01:44:20.205Z,934.63
2019-05-25T01:46:49.786Z,910.03
2019-05-25T01:49:19.665Z,889.50
2019-05-25T01:51:49.086Z,923.10
2019-05-25T01:54:18.108Z,920.40
2019-05-25T01:56:47.179Z,923.87
2019-05-25T01:59:16.720Z,933.27
2019-05-25T02:01:45.803Z,902.03
2019-05-25T02:04:14.881Z,896.10
2019-05-25T02:06:44.476Z,914.73
2019-05-25T02:09:13.543Z,938.73
2019-05-25T02:11:42.729Z,893.30
2019-05-25T02:14:11.771Z,918.10
2019-05-25T02:16:40.946Z,922.10
2019-05-25T02:19:09.997Z,930.10
2019-05-25T02:21:39.180Z,969.77
2019-05-25T02:24:08.235Z,914.03
2019-05-25T02:26:37.276Z,963.93
2019-05-25T02:29:06.314Z,961.70
2019-05-25T02:31:35.326Z,941.17
2019-05-25T02:34:04.461Z,938.07
2019-05-25T02:36:33.585Z,934.53
2019-05-25T02:39:02.971Z,920.17
2019-05-25T02:41:32.008Z,933.00
2019-05-25T02:44:01.068Z,904.27
2019-05-25T02:46:30.435Z,889.97
2019-05-25T02:48:59.716Z,911.60
2019-05-25T02:51:28.751Z,921.43
2019-05-25T02:53:57.900Z,973.23
2019-05-25T02:56:26.945Z,982.93
2019-05-25T02:58:56.324Z,978.17
2019-05-25T03:01:26.337Z,963.23
2019-05-25T03:03:55.387Z,932.73
2019-05-25T03:06:24.743Z,939.77
2019-05-25T03:08:54.068Z,967.87
2019-05-25T03:11:23.388Z,968.37
2019-05-25T03:13:53.001Z,966.73
2019-05-25T03:16:22.738Z,944.93
2019-05-25T03:18:51.840Z,943.20
2019-05-25T03:21:21.913Z,930.60
2019-05-25T03:23:51.274Z,937.70
2019-05-25T03:26:20.326Z,947.13
2019-05-25T03:28:49.420Z,926.87
2019-05-25T03:31:18.438Z,904.87
2019-05-25T03:33:47.500Z,924.70
2019-05-25T03:36:16.539Z,900.23
2019-05-25T03:38:45.562Z,877.77
2019-05-25T03:41:14.616Z,881.50
2019-05-25T03:43:44.544Z,875.30
2019-05-25T03:46:14.297Z,914.07
2019-05-25T03:48:43.333Z,898.10
2019-05-25T03:51:12.453Z,893.80
2019-05-25T03:53:41.422Z,856.00
2019-05-25T03:56:10.481Z,873.97
2019-05-25T03:58:39.515Z,876.90
2019-05-25T04:01:09.420Z,880.77
2019-05-25T04:03:38.502Z,869.60
2019-05-25T04:06:07.769Z,885.80
2019-05-25T04:08:46.661Z,874.93
2019-05-25T04:11:15.727Z,879.87
2019-05-25T04:13:44.748Z,901.27
2019-05-25T04:16:14.024Z,908.83
2019-05-25T04:18:43.085Z,912.63
2019-05-25T04:21:12.191Z,881.07
2019-05-25T04:23:41.770Z,885.03
2019-05-25T04:26:21.928Z,903.77
2019-05-25T04:28:41.762Z,914.70
2019-05-25T04:31:10.851Z,941.40
2019-05-25T04:37:09.398Z,871.40
2019-05-25T04:39:38.666Z,893.53
2019-05-25T04:42:07.711Z,908.10
2019-05-25T04:44:36.974Z,947.73
2019-05-25T04:47:05.999Z,891.47
2019-05-25T04:49:35.067Z,900.87
2019-05-25T04:52:04.844Z,895.50
2019-05-25T04:54:33.885Z,956.17
2019-05-25T04:57:03.137Z,936.37
2019-05-25T04:59:32.999Z,901.13
2019-05-25T05:02:02.043Z,954.53
2019-05-25T05:04:31.127Z,952.47
2019-05-25T05:07:00.245Z,928.77
2019-05-25T05:09:30.039Z,982.40
2019-05-25T05:11:59.086Z,918.87
2019-05-25T05:14:28.396Z,993.67
2019-05-25T05:17:00.748Z,935.53
2019-05-25T05:19:30.666Z,977.30
2019-05-25T05:21:59.769Z,961.50
2019-05-25T05:24:28.804Z,962.10
2019-05-25T05:26:57.909Z,969.37
2019-05-25T05:29:27.717Z,951.83
2019-05-25T05:31:56.750Z,933.00
2019-05-25T05:34:25.872Z,961.07
2019-05-25T05:36:55.213Z,985.10
2019-05-25T05:39:24.316Z,972.27
2019-05-25T05:41:54.771Z,960.50
2019-05-25T05:44:24.693Z,960.67
2019-05-25T05:46:56.292Z,999.63
2019-05-25T05:49:25.707Z,991.83
2019-05-25T05:51:55.054Z,981.20
2019-05-25T05:54:24.412Z,999.90
2019-05-25T05:56:53.681Z,999.90
2019-05-25T05:59:22.708Z,999.90
2019-05-25T06:01:52.954Z,999.90
2019-05-25T06:04:21.944Z,999.90
2019-05-25T06:06:51.099Z,999.90
2019-05-25T06:09:20.226Z,999.90
2019-05-25T06:11:51.059Z,999.90
2019-05-25T06:14:20.323Z,999.90
2019-05-25T06:16:49.905Z,999.90
2019-05-25T06:19:19.346Z,999.90
2019-05-25T06:21:48.656Z,999.90
2019-05-25T06:24:17.703Z,999.90
2019-05-25T06:26:46.763Z,999.90
2019-05-25T06:29:16.649Z,999.90
2019-05-25T06:31:45.999Z,999.90
2019-05-25T06:34:15.829Z,999.90
2019-05-25T06:36:44.857Z,999.90
2019-05-25T06:39:13.891Z,999.90
2019-05-25T06:41:42.952Z,999.90
2019-05-25T06:44:12.171Z,999.90
2019-05-25T06:46:41.301Z,999.90
2019-05-25T06:49:11.045Z,999.90
2019-05-25T06:51:40.097Z,999.90
2019-05-25T06:54:09.174Z,999.90
2019-05-25T06:56:38.729Z,999.90
2019-05-25T06:59:07.823Z,999.90
2019-05-25T07:01:36.852Z,999.90
2019-05-25T07:04:05.934Z,999.90
2019-05-25T07:06:35.056Z,999.57
2019-05-25T07:09:06.676Z,999.90
2019-05-25T07:11:35.750Z,994.53
2019-05-25T07:14:05.402Z,999.90
2019-05-25T07:16:34.466Z,962.43
2019-05-25T07:19:04.139Z,999.90
2019-05-25T07:21:34.206Z,999.90
2019-05-25T07:24:03.873Z,999.90
2019-05-25T07:26:33.041Z,978.43
2019-05-25T07:29:02.976Z,999.90
2019-05-25T07:31:32.098Z,998.60
2019-05-25T07:34:01.616Z,999.90
2019-05-25T07:36:31.635Z,999.90
2019-05-25T07:39:01.471Z,999.90
2019-05-25T07:41:32.761Z,999.90
2019-05-25T07:44:02.214Z,999.90
2019-05-25T07:46:32.915Z,999.90
2019-05-25T07:49:02.021Z,999.90
2019-05-25T07:51:31.054Z,999.90
2019-05-25T07:54:00.141Z,999.90
2019-05-25T07:56:29.196Z,999.90
2019-05-25T07:58:58.219Z,983.23
2019-05-25T08:01:28.030Z,999.90
2019-05-25T08:03:57.129Z,990.67
2019-05-25T08:06:26.173Z,999.90
2019-05-25T08:08:55.472Z,999.90
2019-05-25T08:11:24.537Z,999.90
2019-05-25T08:13:54.408Z,999.90
2019-05-25T08:16:23.505Z,999.90
2019-05-25T08:18:52.516Z,999.90
2019-05-25T08:21:21.581Z,999.90
2019-05-25T08:23:50.680Z,999.90
2019-05-25T08:26:19.863Z,999.90
2019-05-25T08:28:48.896Z,999.90
2019-05-25T08:31:18.610Z,996.60
2019-05-25T08:33:47.655Z,999.90
2019-05-25T08:36:16.826Z,999.90
2019-05-25T08:38:46.257Z,999.90
2019-05-25T08:41:15.328Z,999.90
2019-05-25T08:43:45.198Z,999.30
2019-05-25T08:46:14.696Z,999.90
2019-05-25T08:48:43.728Z,999.90
2019-05-25T08:51:13.346Z,998.70
2019-05-25T08:53:46.599Z,999.90
2019-05-25T08:56:15.826Z,988.33
2019-05-25T08:58:48.440Z,975.90
2019-05-25T09:01:15.667Z,999.87
2019-05-25T09:03:45.488Z,999.90
2019-05-25T09:06:14.534Z,999.90
2019-05-25T09:08:43.609Z,982.55
2019-05-25T09:11:13.432Z,997.08
2019-05-25T09:13:42.522Z,999.90
2019-05-25T09:16:11.916Z,970.77
2019-05-25T09:18:41.816Z,939.55
2019-05-25T09:21:10.923Z,917.05
2019-05-25T09:23:40.322Z,916.25
2019-05-25T09:26:13.267Z,976.05
2019-05-25T09:28:40.825Z,903.52
2019-05-25T09:31:09.915Z,930.78
2019-05-25T09:33:39.847Z,856.63
2019-05-25T09:36:08.901Z,827.35
2019-05-25T09:38:37.939Z,804.15
2019-05-25T09:41:06.996Z,810.65
2019-05-25T09:43:36.073Z,860.50
2019-05-25T09:46:05.166Z,795.95
2019-05-25T09:48:37.938Z,910.60
2019-05-25T09:51:05.109Z,883.30
2019-05-25T09:53:34.476Z,838.23
2019-05-25T09:56:04.309Z,841.73
2019-05-25T09:58:33.736Z,848.20
2019-05-25T10:01:02.765Z,943.50
2019-05-25T10:03:32.080Z,905.85
2019-05-25T10:06:10.206Z,866.02
2019-05-25T10:08:31.772Z,830.27
2019-05-25T10:11:00.829Z,815.62
2019-05-25T10:13:30.252Z,789.10
2019-05-25T10:15:59.283Z,766.62
2019-05-25T10:18:28.605Z,784.70
2019-05-25T10:20:57.663Z,886.52
2019-05-25T10:23:26.709Z,827.92
2019-05-25T10:25:55.808Z,882.40
2019-05-25T10:28:25.052Z,861.40
2019-05-25T10:30:54.714Z,856.93
2019-05-25T10:33:24.096Z,829.23
2019-05-25T10:35:57.998Z,825.77
2019-05-25T10:38:24.149Z,812.35
2019-05-25T10:40:53.288Z,739.65
2019-05-25T10:43:22.314Z,777.50
2019-05-25T10:45:51.445Z,832.40
2019-05-25T10:48:20.668Z,834.02
2019-05-25T10:50:49.957Z,802.77
2019-05-25T10:53:19.107Z,841.08
2019-05-25T10:55:48.140Z,830.78
2019-05-25T10:58:17.200Z,828.22
2019-05-25T11:00:46.238Z,860.30
2019-05-25T11:03:15.301Z,833.62
2019-05-25T11:05:44.331Z,839.93
2019-05-25T11:08:13.477Z,840.67
2019-05-25T11:10:42.548Z,854.05
2019-05-25T11:13:12.403Z,814.48
2019-05-25T11:15:41.524Z,912.83
2019-05-25T11:18:10.576Z,857.92
2019-05-25T11:20:39.687Z,877.92
2019-05-25T11:23:08.897Z,865.25
2019-05-25T11:25:37.947Z,878.08
2019-05-25T11:28:08.414Z,857.42
2019-05-25T11:30:37.726Z,904.00
2019-05-25T11:33:07.284Z,810.10
2019-05-25T11:35:36.345Z,886.67
2019-05-25T11:38:05.791Z,886.48
2019-05-25T11:40:34.870Z,871.37
2019-05-25T11:43:04.516Z,856.98
2019-05-25T11:45:33.556Z,868.33
2019-05-25T11:48:02.626Z,834.90
2019-05-25T11:50:31.828Z,870.25
2019-05-25T11:53:00.822Z,843.28
2019-05-25T11:55:29.873Z,899.80
2019-05-25T11:57:58.921Z,847.15
2019-05-25T12:00:28.027Z,923.45
2019-05-25T12:02:58.419Z,894.15
2019-05-25T12:05:27.459Z,917.00
2019-05-25T12:07:57.024Z,892.02
2019-05-25T12:10:26.204Z,919.75
2019-05-25T12:12:55.478Z,909.83
2019-05-25T12:15:25.431Z,921.67
2019-05-25T12:17:56.545Z,921.45
2019-05-25T12:20:25.797Z,912.80
2019-05-25T12:22:54.880Z,914.60
2019-05-25T12:25:23.923Z,910.70
2019-05-25T12:27:52.952Z,882.30
2019-05-25T12:30:22.068Z,913.78
2019-05-25T12:32:51.104Z,873.05
2019-05-25T12:35:20.149Z,922.33
2019-05-25T12:37:49.305Z,922.23
2019-05-25T12:40:18.634Z,923.25
2019-05-25T12:42:47.733Z,870.45
2019-05-25T12:45:17.848Z,889.58
2019-05-25T12:47:46.916Z,892.85
2019-05-25T12:50:16.414Z,908.25
2019-05-25T12:52:46.251Z,929.70
2019-05-25T12:55:16.409Z,931.60
2019-05-25T12:57:46.172Z,914.17
2019-05-25T13:00:17.146Z,878.73
2019-05-25T13:06:18.204Z,919.82
2019-05-25T13:08:46.137Z,919.92
2019-05-25T13:11:15.855Z,891.00
2019-05-25T13:13:44.907Z,860.25
2019-05-25T13:16:14.320Z,862.23
2019-05-25T13:18:43.712Z,812.80
2019-05-25T13:21:12.788Z,841.00
2019-05-25T13:23:42.536Z,850.60
2019-05-25T13:26:11.604Z,855.60
2019-05-25T13:28:40.665Z,890.58
2019-05-25T13:31:11.953Z,830.18
2019-05-25T13:33:40.839Z,867.28
2019-05-25T13:36:09.897Z,872.75
2019-05-25T13:38:38.938Z,901.17
2019-05-25T13:41:07.975Z,843.22
2019-05-25T13:43:37.043Z,856.75
2019-05-25T13:46:06.145Z,919.52
2019-05-25T13:48:35.237Z,904.83
2019-05-25T13:51:04.452Z,920.80
2019-05-25T13:53:33.501Z,901.52
2019-05-25T13:56:02.589Z,930.20
2019-05-25T13:58:31.657Z,886.17
2019-05-25T14:01:00.769Z,900.62
2019-05-25T14:03:29.961Z,921.57
2019-05-25T14:06:00.778Z,941.87
2019-05-25T14:08:29.814Z,924.53
2019-05-25T14:10:58.912Z,907.45
2019-05-25T14:13:28.091Z,945.73
2019-05-25T14:16:06.649Z,957.05
2019-05-25T14:18:29.883Z,927.30
2019-05-25T14:20:59.835Z,898.53
2019-05-25T14:23:28.938Z,923.30
2019-05-25T14:25:57.980Z,999.90
2019-05-25T14:28:27.110Z,939.65
2019-05-25T14:30:56.155Z,999.90
2019-05-25T14:33:25.696Z,999.90
2019-05-25T14:35:54.750Z,964.80
2019-05-25T14:39:30.900Z,942.17
2019-05-25T14:41:59.983Z,988.40
2019-05-25T14:44:29.180Z,978.48
2019-05-25T14:46:58.916Z,977.95
2019-05-25T14:49:28.197Z,955.20
2019-05-25T14:51:57.357Z,941.55
2019-05-25T14:54:26.771Z,949.77
2019-05-25T14:57:07.797Z,871.37
2019-05-25T14:59:36.826Z,886.10
2019-05-25T15:02:05.953Z,999.90
2019-05-25T15:04:34.985Z,900.17
2019-05-25T15:07:04.336Z,999.90
2019-05-25T15:09:34.718Z,857.53
2019-05-25T15:12:03.818Z,898.62
2019-05-25T15:14:33.059Z,936.30
2019-05-25T15:17:02.206Z,893.60
2019-05-25T15:19:31.235Z,965.05
2019-05-25T15:22:00.290Z,900.53
2019-05-25T15:24:29.581Z,980.57
2019-05-25T15:26:59.318Z,891.38
2019-05-25T15:29:28.419Z,960.10
2019-05-25T15:31:57.446Z,964.48
2019-05-25T15:34:26.953Z,958.75
2019-05-25T15:36:56.001Z,894.70
2019-05-25T15:39:25.436Z,932.55
2019-05-25T15:41:54.436Z,959.67
2019-05-25T15:44:23.897Z,917.58
2019-05-25T15:46:53.155Z,920.10
2019-05-25T15:49:32.836Z,937.03
2019-05-25T15:51:53.736Z,912.48
2019-05-25T15:54:23.154Z,937.03
2019-05-25T15:56:52.205Z,923.00
2019-05-25T15:59:23.525Z,945.97
2019-05-25T16:02:17.233Z,938.33
2019-05-25T16:04:46.332Z,937.18
2019-05-25T16:07:16.531Z,883.13
2019-05-25T16:09:46.097Z,943.52
2019-05-25T16:12:15.812Z,925.53
2019-05-25T16:14:44.870Z,938.65
2019-05-25T16:17:14.802Z,958.40
2019-05-25T16:19:43.879Z,962.15
2019-05-25T16:22:13.626Z,936.95
2019-05-25T16:24:42.661Z,986.03
2019-05-25T16:27:11.722Z,908.00
2019-05-25T16:29:40.775Z,974.00
2019-05-25T16:32:10.679Z,973.25
2019-05-25T16:34:39.724Z,954.12
2019-05-25T16:37:09.226Z,954.55
2019-05-25T16:39:38.489Z,970.50
2019-05-25T16:42:08.524Z,979.80
2019-05-25T16:44:38.562Z,939.65
2019-05-25T16:47:08.140Z,958.70
2019-05-25T16:49:37.490Z,977.43
2019-05-25T16:52:06.640Z,922.08
2019-05-25T16:54:35.728Z,999.90
2019-05-25T16:57:05.498Z,993.85
2019-05-25T16:59:34.563Z,986.17
2019-05-25T17:02:03.675Z,942.62
2019-05-25T17:04:32.731Z,977.15
2019-05-25T17:07:01.880Z,956.72
2019-05-25T17:09:31.649Z,989.32
2019-05-25T17:12:00.704Z,946.85
2019-05-25T17:14:30.000Z,966.20
2019-05-25T17:16:59.165Z,934.52
2019-05-25T17:19:28.198Z,985.65
2019-05-25T17:21:57.403Z,957.73
2019-05-25T17:24:26.453Z,958.05
2019-05-25T17:26:55.507Z,981.85
2019-05-25T17:29:24.543Z,963.38
2019-05-25T17:31:54.179Z,999.90
2019-05-25T17:34:23.958Z,996.15
2019-05-25T17:36:53.651Z,999.90
2019-05-25T17:39:23.269Z,984.13
2019-05-25T17:41:53.448Z,999.87
2019-05-25T17:44:22.712Z,999.90
2019-05-25T17:46:52.219Z,981.42
2019-05-25T17:49:21.501Z,999.90
2019-05-25T17:51:50.711Z,972.55
2019-05-25T17:54:19.713Z,973.12
2019-05-25T17:56:49.091Z,999.90
2019-05-25T17:59:18.236Z,965.77
2019-05-25T18:01:47.328Z,983.80
2019-05-25T18:04:17.196Z,999.47
2019-05-25T18:06:46.362Z,999.90
2019-05-25T18:09:15.401Z,983.85
2019-05-25T18:11:44.825Z,971.18
2019-05-25T18:14:16.661Z,999.90
2019-05-25T18:16:45.738Z,998.85
2019-05-25T18:19:15.399Z,999.90
2019-05-25T18:21:44.909Z,999.90
2019-05-25T18:24:14.236Z,999.90
2019-05-25T18:26:43.283Z,999.90
2019-05-25T18:29:12.321Z,999.90
2019-05-25T18:31:42.251Z,999.90
2019-05-25T18:34:21.758Z,999.90
2019-05-25T18:36:42.605Z,999.90
2019-05-25T18:39:11.830Z,999.90
2019-05-25T18:41:40.928Z,999.90
2019-05-25T18:44:09.936Z,999.90
2019-05-25T18:46:38.986Z,999.90
2019-05-25T18:49:08.015Z,999.90
2019-05-25T18:51:37.062Z,999.90
2019-05-25T18:54:07.998Z,999.90
2019-05-25T18:56:37.164Z,999.90
2019-05-25T18:59:06.203Z,999.90
2019-05-25T19:01:35.221Z,999.90
2019-05-25T19:04:04.277Z,999.90
2019-05-25T19:06:33.599Z,999.90
2019-05-25T19:09:03.672Z,999.90
2019-05-25T19:11:35.742Z,999.90
2019-05-25T19:14:03.440Z,999.57
2019-05-25T19:16:33.034Z,992.33
2019-05-25T19:19:02.372Z,999.90
2019-05-25T19:21:31.737Z,999.90
2019-05-25T19:24:01.511Z,992.67
2019-05-25T19:26:30.530Z,990.33
2019-05-25T19:28:59.624Z,978.43
2019-05-25T19:31:28.665Z,999.90
2019-05-25T19:33:58.285Z,994.97
2019-05-25T19:36:28.757Z,998.97
2019-05-25T19:38:57.797Z,996.97
2019-05-25T19:41:26.828Z,979.63
2019-05-25T19:43:56.231Z,998.47
2019-05-25T19:46:25.276Z,979.47
2019-05-25T19:48:54.315Z,977.37
2019-05-25T19:51:23.361Z,964.90
2019-05-25T19:53:52.485Z,966.07
2019-05-25T19:56:21.502Z,952.50
2019-05-25T19:58:51.920Z,945.77
2019-05-25T20:01:21.488Z,966.87
2019-05-25T20:03:50.581Z,987.90
2019-05-25T20:06:19.701Z,965.00
2019-05-25T20:08:48.858Z,961.03
2019-05-25T20:11:18.008Z,957.17
2019-05-25T20:13:46.986Z,969.83
2019-05-25T20:16:16.959Z,907.40
2019-05-25T20:18:46.021Z,947.20
2019-05-25T20:21:15.094Z,925.43
2019-05-25T20:23:44.141Z,926.47
2019-05-25T20:26:13.203Z,955.23
2019-05-25T20:28:42.866Z,900.40
2019-05-25T20:31:11.885Z,913.20
2019-05-25T20:33:40.924Z,937.50
2019-05-25T20:36:10.786Z,943.03
2019-05-25T20:38:39.840Z,967.67
2019-05-25T20:41:08.885Z,926.10
2019-05-25T20:43:37.950Z,926.57
2019-05-25T20:46:07.502Z,928.73
2019-05-25T20:48:36.815Z,913.13
2019-05-25T20:51:05.847Z,920.43
2019-05-25T20:53:34.881Z,928.83
2019-05-25T20:56:03.952Z,929.83
2019-05-25T20:58:33.069Z,954.80
2019-05-25T21:01:03.078Z,960.40
2019-05-25T21:03:32.840Z,964.23
2019-05-25T21:06:02.019Z,971.10
2019-05-25T21:08:31.764Z,949.93
2019-05-25T21:11:00.835Z,946.37
2019-05-25T21:13:30.321Z,951.20
2019-05-25T21:16:00.228Z,957.23
2019-05-25T21:18:29.251Z,965.57
2019-05-25T21:20:58.399Z,936.60
2019-05-25T21:23:27.456Z,961.73
2019-05-25T21:25:56.695Z,952.33
2019-05-25T21:28:26.472Z,978.60
2019-05-25T21:30:55.525Z,972.67
2019-05-25T21:33:24.934Z,963.13
2019-05-25T21:36:07.733Z,976.17
2019-05-25T21:38:25.387Z,968.87
2019-05-25T21:40:55.024Z,980.37
2019-05-25T21:43:24.078Z,972.53
2019-05-25T21:45:53.211Z,995.83
2019-05-25T21:48:22.256Z,999.90
2019-05-25T21:50:51.559Z,999.90
2019-05-25T21:53:20.665Z,963.47
2019-05-25T21:55:49.723Z,980.13
2019-05-25T21:58:18.813Z,973.77
2019-05-25T22:00:49.688Z,999.90
2019-05-25T22:03:19.168Z,986.67
2019-05-25T22:05:49.075Z,999.90
2019-05-25T22:08:18.099Z,977.70
2019-05-25T22:10:48.031Z,999.90
2019-05-25T22:13:27.947Z,999.90
2019-05-25T22:15:48.506Z,981.27
2019-05-25T22:18:17.553Z,999.90
2019-05-25T22:20:46.595Z,994.57
2019-05-25T22:23:16.457Z,986.40
2019-05-25T22:25:45.548Z,999.90
2019-05-25T22:28:14.584Z,999.90
2019-05-25T22:30:43.615Z,999.67
2019-05-25T22:33:12.651Z,996.20
2019-05-25T22:35:42.650Z,977.03
2019-05-25T22:38:11.751Z,981.03
2019-05-25T22:40:40.822Z,981.40
2019-05-25T22:43:09.868Z,974.43
2019-05-25T22:45:39.626Z,986.30
2019-05-25T22:48:09.610Z,999.27
2019-05-25T22:50:39.285Z,985.53
2019-05-25T22:53:08.400Z,999.67
2019-05-25T22:55:37.429Z,971.00
2019-05-25T22:58:06.460Z,994.17
2019-05-25T23:00:35.493Z,969.27
2019-05-25T23:03:05.419Z,995.50
2019-05-25T23:05:35.212Z,999.90
2019-05-25T23:08:04.368Z,999.90
2019-05-25T23:10:33.780Z,999.90
2019-05-25T23:13:04.155Z,995.77
2019-05-25T23:15:33.159Z,988.77
2019-05-25T23:18:02.243Z,984.40
2019-05-25T23:20:31.893Z,998.73
2019-05-25T23:23:00.949Z,999.90
2019-05-25T23:25:30.023Z,987.53
2019-05-25T23:27:59.083Z,958.93
2019-05-25T23:30:28.102Z,957.57
2019-05-25T23:32:58.673Z,999.53
2019-05-25T23:35:27.794Z,991.70
2019-05-25T23:37:56.859Z,994.33
2019-05-25T23:40:26.120Z,960.93
2019-05-25T23:42:55.737Z,999.60
2019-05-25T23:45:25.649Z,964.53
2019-05-25T23:47:54.740Z,978.13
2019-05-25T23:50:24.474Z,961.27
2019-05-25T23:52:54.151Z,988.37
2019-05-25T23:55:23.190Z,991.77
2019-05-25T23:57:52.800Z,938.93
